Time;durP1;ratioP1;P1;durP2;ratioP2;P2;SDS_P1;SDS_P2;PMS_P1;PMS_P2;Temp;Humidity;BMP_temperature;BMP_pressure;BME280_temperature;BME280_humidity;BME280_pressure;Samples;Min_cycle;Max_cycle;Signal;HPM_P1;HPM_P2
2024/03/31 00:00:47;;;;;;;16.00;10.30;;;;;;;28.70;26.64;100385.69;105819;1268;70149;-83
2024/03/31 00:03:13;;;;;;;15.80;10.50;;;;;;;28.69;26.72;100385.95;105942;1268;72260;-83
2024/03/31 00:05:38;;;;;;;17.00;10.70;;;;;;;28.69;26.65;100378.78;105863;1268;70008;-83
2024/03/31 00:08:04;;;;;;;14.80;10.80;;;;;;;28.69;26.48;100377.65;105891;1268;70065;-83
2024/03/31 00:10:29;;;;;;;15.60;10.40;;;;;;;28.69;26.79;100381.05;105933;1270;70620;-83
2024/03/31 00:12:58;;;;;;;17.90;11.50;;;;;;;28.68;26.63;100377.66;105689;1265;69955;-88
2024/03/31 00:15:28;;;;;;;14.80;10.50;;;;;;;28.68;26.61;100377.45;105644;1271;69945;-83
2024/03/31 00:17:54;;;;;;;14.60;10.40;;;;;;;28.68;26.60;100376.20;105706;1267;70044;-83
2024/03/31 00:20:20;;;;;;;14.40;10.50;;;;;;;28.68;26.68;100374.88;105720;1265;70020;-83
2024/03/31 00:22:46;;;;;;;16.80;10.80;;;;;;;28.68;26.55;100370.89;105725;1269;70024;-83
2024/03/31 00:25:12;;;;;;;15.20;10.60;;;;;;;28.67;26.66;100370.23;105765;1268;70003;-84
2024/03/31 00:27:37;;;;;;;17.70;10.40;;;;;;;28.67;26.65;100369.83;105788;1265;69933;-83
2024/03/31 00:30:03;;;;;;;14.30;10.10;;;;;;;28.67;26.73;100367.20;105895;1266;70029;-83
2024/03/31 00:32:29;;;;;;;17.80;11.10;;;;;;;28.66;26.73;100365.19;105734;1268;69996;-83
2024/03/31 00:34:54;;;;;;;14.20;10.50;;;;;;;28.66;26.64;100368.48;105809;1268;71156;-83
2024/03/31 00:37:20;;;;;;;14.70;10.80;;;;;;;28.66;26.56;100369.90;105799;1268;69928;-83
2024/03/31 00:39:45;;;;;;;14.10;10.70;;;;;;;28.67;26.70;100367.77;105721;1270;70015;-83
2024/03/31 00:42:11;;;;;;;17.30;11.10;;;;;;;28.66;26.60;100360.06;105791;1268;70134;-83
2024/03/31 00:44:36;;;;;;;15.70;10.40;;;;;;;28.65;26.55;100358.02;105900;1270;70004;-83
2024/03/31 00:47:02;;;;;;;14.90;10.10;;;;;;;28.66;26.55;100358.63;105791;1266;71232;-83
2024/03/31 00:49:27;;;;;;;17.20;10.50;;;;;;;28.66;26.63;100359.03;105734;1270;69998;-83
2024/03/31 00:51:53;;;;;;;12.50;9.70;;;;;;;28.66;26.57;100361.17;105724;1268;70014;-89
2024/03/31 00:54:20;;;;;;;16.40;9.70;;;;;;;28.65;26.59;100363.56;105749;1268;69985;-83
2024/03/31 00:56:45;;;;;;;14.60;9.70;;;;;;;28.65;26.65;100356.73;105729;1268;70020;-83
2024/03/31 00:59:11;;;;;;;16.50;10.20;;;;;;;28.65;26.63;100354.54;105785;1272;70023;-83
2024/03/31 01:01:36;;;;;;;12.20;9.50;;;;;;;28.64;26.62;100352.94;105770;1270;70011;-83
2024/03/31 01:04:02;;;;;;;12.90;9.60;;;;;;;28.64;26.63;100355.05;105746;1273;70020;-83
2024/03/31 01:06:27;;;;;;;14.90;10.00;;;;;;;28.64;26.55;100354.50;105579;1271;70065;-83
2024/03/31 01:08:53;;;;;;;13.50;9.70;;;;;;;28.64;26.60;100351.65;105815;1268;70140;-83
2024/03/31 01:11:18;;;;;;;13.90;9.80;;;;;;;28.64;26.50;100352.18;105794;1264;70026;-83
2024/03/31 01:13:45;;;;;;;12.60;9.30;;;;;;;28.63;26.50;100353.25;105878;1270;70060;-83
2024/03/31 01:16:10;;;;;;;14.70;9.00;;;;;;;28.63;26.67;100355.64;105804;1268;70009;-83
2024/03/31 01:18:36;;;;;;;14.70;9.90;;;;;;;28.63;26.53;100358.36;105849;1269;70111;-83
2024/03/31 01:21:01;;;;;;;14.70;9.20;;;;;;;28.63;26.59;100358.98;105795;1270;69955;-83
2024/03/31 01:23:29;;;;;;;15.20;9.30;;;;;;;28.63;26.71;100356.09;105703;1277;70024;-83
2024/03/31 01:26:01;;;;;;;14.10;9.30;;;;;;;28.63;26.69;100362.48;105964;1264;71216;-83
2024/03/31 01:28:28;;;;;;;15.10;9.70;;;;;;;28.62;26.55;100363.72;105809;1266;69961;-83
2024/03/31 01:30:54;;;;;;;14.00;9.00;;;;;;;28.62;26.64;100364.82;105821;1266;74404;-83
2024/03/31 01:33:19;;;;;;;16.80;9.30;;;;;;;28.62;26.74;100367.97;105703;1267;71234;-83
2024/03/31 01:35:44;;;;;;;12.70;9.70;;;;;;;28.62;26.65;100371.55;105747;1267;69962;-83
2024/03/31 01:38:10;;;;;;;11.70;8.70;;;;;;;28.62;26.68;100370.97;105774;1267;70019;-83
2024/03/31 01:40:36;;;;;;;14.30;9.20;;;;;;;28.62;26.56;100372.98;105819;1269;71533;-83
2024/03/31 01:43:01;;;;;;;15.50;9.10;;;;;;;28.62;26.50;100368.66;105718;1277;69996;-83
2024/03/31 01:45:27;;;;;;;14.10;9.60;;;;;;;28.62;26.63;100373.89;105692;1268;70031;-83
2024/03/31 01:47:52;;;;;;;15.50;9.10;;;;;;;28.61;26.52;100374.02;106845;1267;69982;-83
2024/03/31 01:50:18;;;;;;;12.80;8.70;;;;;;;28.61;26.62;100368.58;106346;1265;68618;-83
2024/03/31 01:52:44;;;;;;;14.80;9.10;;;;;;;28.61;26.64;100370.44;106033;1268;69877;-83
2024/03/31 01:55:09;;;;;;;13.30;8.70;;;;;;;28.61;26.48;100377.58;105871;1267;70003;-83
2024/03/31 01:57:35;;;;;;;12.70;9.40;;;;;;;28.61;26.55;100373.60;105754;1267;70147;-88
2024/03/31 02:00:01;;;;;;;16.50;8.60;;;;;;;28.61;26.59;100373.41;105708;1271;69941;-83
2024/03/31 02:02:26;;;;;;;12.30;8.70;;;;;;;28.60;26.50;100378.64;105813;1267;70024;-83
2024/03/31 02:04:51;;;;;;;15.20;8.90;;;;;;;28.60;26.59;100374.19;105798;1267;70159;-83
2024/03/31 02:07:17;;;;;;;12.70;8.50;;;;;;;28.60;26.61;100375.19;105995;1270;69994;-84
2024/03/31 02:09:42;;;;;;;13.60;8.70;;;;;;;28.60;26.60;100379.12;105909;1265;70085;-84
2024/03/31 02:12:09;;;;;;;11.00;8.30;;;;;;;28.60;26.58;100379.44;105789;1275;70116;-83
2024/03/31 02:14:34;;;;;;;13.70;8.80;;;;;;;28.59;26.56;100376.55;105910;1268;69889;-83
2024/03/31 02:17:00;;;;;;;14.60;8.90;;;;;;;28.59;26.60;100376.52;105868;1266;69998;-83
2024/03/31 02:19:25;;;;;;;13.70;8.80;;;;;;;28.59;26.65;100382.05;106147;1273;70021;-83
2024/03/31 02:21:51;;;;;;;13.10;8.60;;;;;;;28.59;26.49;100382.47;105958;1268;69954;-83
2024/03/31 02:24:17;;;;;;;13.90;8.60;;;;;;;28.58;26.56;100377.57;105737;1267;69988;-83
2024/03/31 02:26:42;;;;;;;15.40;9.00;;;;;;;28.58;26.61;100375.30;105812;1270;70018;-83
2024/03/31 02:29:09;;;;;;;16.70;8.80;;;;;;;28.59;26.55;100377.77;105786;1269;69959;-83
2024/03/31 02:31:34;;;;;;;13.10;8.80;;;;;;;28.58;26.57;100384.79;105803;1269;70063;-83
2024/03/31 02:34:00;;;;;;;11.50;8.40;;;;;;;28.58;26.61;100384.36;105781;1267;70004;-83
2024/03/31 02:36:26;;;;;;;11.70;8.40;;;;;;;28.58;26.49;100381.10;105715;1270;70121;-89
2024/03/31 02:38:52;;;;;;;13.40;8.60;;;;;;;28.57;26.63;100384.44;105712;1267;69987;-83
2024/03/31 02:41:18;;;;;;;12.30;8.60;;;;;;;28.57;26.49;100385.16;105818;1269;70018;-83
2024/03/31 02:43:44;;;;;;;12.20;8.20;;;;;;;28.57;26.53;100390.10;105835;1265;70453;-83
2024/03/31 02:46:09;;;;;;;11.20;7.70;;;;;;;28.57;26.49;100390.77;105794;1268;70002;-83
2024/03/31 02:48:35;;;;;;;13.00;8.00;;;;;;;28.56;26.64;100390.85;105809;1267;70016;-84
2024/03/31 02:51:00;;;;;;;10.90;7.80;;;;;;;28.57;26.68;100392.48;105709;1270;70106;-83
2024/03/31 02:53:26;;;;;;;10.60;8.40;;;;;;;28.55;26.51;100389.83;105829;1270;70027;-83
2024/03/31 02:55:51;;;;;;;12.50;8.10;;;;;;;28.55;26.54;100393.92;105793;1270;70328;-83
2024/03/31 02:58:17;;;;;;;13.00;8.50;;;;;;;28.55;26.45;100390.58;105848;1267;70006;-83
2024/03/31 03:00:42;;;;;;;12.90;8.50;;;;;;;28.54;26.50;100389.30;105750;1269;70319;-83
2024/03/31 03:03:09;;;;;;;12.50;8.10;;;;;;;28.54;26.49;100385.73;105690;1269;70050;-83
2024/03/31 03:05:34;;;;;;;13.50;8.00;;;;;;;28.54;26.58;100381.70;105757;1267;70521;-83
2024/03/31 03:08:00;;;;;;;12.80;8.20;;;;;;;28.54;26.51;100382.54;105804;1267;69930;-83
2024/03/31 03:10:25;;;;;;;12.30;8.10;;;;;;;28.53;26.60;100382.08;106002;1269;68048;-83
2024/03/31 03:12:51;;;;;;;10.70;7.80;;;;;;;28.54;26.54;100383.38;105871;1267;69999;-83
2024/03/31 03:17:59;;;;;;;13.40;8.90;;;;;;;28.53;26.48;100391.84;106225;1264;69879;-83
2024/03/31 03:20:24;;;;;;;12.30;7.80;;;;;;;28.53;26.54;100393.46;106095;1266;70035;-83
2024/03/31 03:22:57;;;;;;;11.30;7.70;;;;;;;28.53;26.48;100395.15;106114;1264;70447;-83
2024/03/31 03:25:23;;;;;;;12.30;7.90;;;;;;;28.52;26.50;100395.52;106079;1264;75051;-83
2024/03/31 03:27:48;;;;;;;11.90;7.40;;;;;;;28.53;26.57;100398.83;106105;1264;69928;-83
2024/03/31 03:30:16;;;;;;;12.80;8.10;;;;;;;28.53;26.51;100399.09;106402;1269;70109;-88
2024/03/31 03:32:42;;;;;;;14.90;7.90;;;;;;;28.53;26.52;100405.25;107271;1266;70024;-83
2024/03/31 03:35:08;;;;;;;12.30;7.60;;;;;;;28.53;26.58;100405.81;106055;1268;70643;-83
2024/03/31 03:37:33;;;;;;;16.60;7.50;;;;;;;28.53;26.54;100405.25;106103;1269;70061;-82
2024/03/31 03:39:59;;;;;;;13.30;7.70;;;;;;;28.52;26.48;100407.33;105995;1270;70010;-82
2024/03/31 03:42:24;;;;;;;12.80;7.40;;;;;;;28.54;26.39;100415.30;105954;1269;70081;-83
2024/03/31 03:44:49;;;;;;;13.00;7.60;;;;;;;28.53;26.39;100419.63;105896;1268;70153;-82
2024/03/31 03:47:15;;;;;;;14.20;7.80;;;;;;;28.53;26.50;100425.99;106041;1268;70014;-82
2024/03/31 03:49:40;;;;;;;13.90;7.10;;;;;;;28.52;26.40;100430.95;106059;1268;69994;-82
2024/03/31 03:52:06;;;;;;;15.70;7.60;;;;;;;28.52;26.48;100433.10;105979;1264;70012;-82
2024/03/31 03:54:31;;;;;;;13.20;7.70;;;;;;;28.52;26.46;100428.23;106024;1264;70038;-83
2024/03/31 03:56:57;;;;;;;10.10;7.40;;;;;;;28.52;26.46;100432.23;106088;1264;70018;-82
2024/03/31 03:59:22;;;;;;;11.70;7.10;;;;;;;28.52;26.48;100439.32;106002;1269;70153;-82
2024/03/31 04:01:48;;;;;;;11.60;7.60;;;;;;;28.51;26.39;100438.84;106058;1268;70023;-82
2024/03/31 04:04:13;;;;;;;13.20;7.30;;;;;;;28.52;26.41;100439.17;106058;1268;69951;-82
2024/03/31 04:06:39;;;;;;;13.60;7.50;;;;;;;28.51;26.44;100444.94;105844;1270;69976;-83
2024/03/31 04:09:08;;;;;;;14.80;7.00;;;;;;;28.51;26.29;100452.07;105920;1265;70024;-88
2024/03/31 04:11:33;;;;;;;14.40;7.30;;;;;;;28.50;26.30;100451.02;105939;1268;69994;-82
2024/03/31 04:13:59;;;;;;;12.80;7.50;;;;;;;28.50;26.30;100452.79;106010;1268;70023;-82
2024/03/31 04:16:24;;;;;;;14.50;7.20;;;;;;;28.49;26.46;100448.05;105977;1266;69959;-82
2024/03/31 04:18:50;;;;;;;12.90;6.60;;;;;;;28.49;26.46;100450.32;105982;1268;70056;-82
2024/03/31 04:21:16;;;;;;;12.50;6.70;;;;;;;28.49;26.43;100448.05;105893;1268;69920;-82
2024/03/31 04:23:41;;;;;;;12.20;6.50;;;;;;;28.50;26.44;100448.08;105762;1267;69997;-84
2024/03/31 04:26:07;;;;;;;13.80;7.20;;;;;;;28.49;26.40;100448.00;105692;1268;70032;-84
2024/03/31 04:28:32;;;;;;;15.20;6.90;;;;;;;28.49;26.44;100449.56;105718;1268;70021;-84
2024/03/31 04:31:02;;;;;;;12.80;6.50;;;;;;;28.49;26.50;100450.59;105829;1277;70010;-82
2024/03/31 04:33:32;;;;;;;13.90;6.50;;;;;;;28.49;26.57;100451.01;105875;1268;70455;-84
2024/03/31 04:38:37;;;;;;;12.50;7.20;;;;;;;28.48;26.45;100446.80;105990;1266;74306;-83
2024/03/31 04:41:03;;;;;;;12.10;6.80;;;;;;;28.48;26.34;100447.39;105760;1265;70152;-83
2024/03/31 04:43:28;;;;;;;13.90;7.00;;;;;;;28.48;26.53;100445.38;105774;1264;70003;-84
2024/03/31 04:46:02;;;;;;;13.00;7.00;;;;;;;28.48;26.35;100447.36;105704;1268;70059;-84
2024/03/31 04:48:27;;;;;;;13.20;6.60;;;;;;;28.48;26.38;100450.92;105911;1266;69855;-84
2024/03/31 04:50:53;;;;;;;13.00;7.30;;;;;;;28.48;26.35;100455.07;105692;1264;69960;-84
2024/03/31 04:53:18;;;;;;;12.70;6.60;;;;;;;28.48;26.40;100451.61;105731;1266;70107;-84
2024/03/31 04:55:44;;;;;;;13.90;6.90;;;;;;;28.48;26.40;100451.23;105781;1265;70778;-84
2024/03/31 04:58:10;;;;;;;11.50;6.70;;;;;;;28.48;26.47;100453.48;105764;1267;70004;-84
2024/03/31 05:00:35;;;;;;;12.40;6.70;;;;;;;28.48;26.28;100455.34;105789;1268;69944;-84
2024/03/31 05:03:03;;;;;;;12.10;6.60;;;;;;;28.48;26.47;100453.48;105796;1268;70598;-89
2024/03/31 05:05:28;;;;;;;14.70;6.80;;;;;;;28.48;26.30;100455.06;105717;1268;70024;-84
2024/03/31 05:07:54;;;;;;;14.70;6.90;;;;;;;28.48;26.39;100456.77;105727;1265;69999;-84
2024/03/31 05:10:19;;;;;;;12.40;6.30;;;;;;;28.48;26.36;100454.23;105889;1268;69965;-84
2024/03/31 05:12:45;;;;;;;12.20;6.10;;;;;;;28.48;26.35;100458.73;105796;1266;70022;-84
2024/03/31 05:15:10;;;;;;;13.10;6.50;;;;;;;28.48;26.30;100458.33;105701;1268;70045;-85
2024/03/31 05:17:35;;;;;;;13.80;6.90;;;;;;;28.48;26.31;100464.02;105656;1265;70233;-84
2024/03/31 05:20:02;;;;;;;15.20;6.60;;;;;;;28.48;26.34;100460.61;105754;1266;70131;-84
2024/03/31 05:22:27;;;;;;;13.20;6.30;;;;;;;28.48;26.43;100461.64;105742;1266;69984;-84
2024/03/31 05:24:53;;;;;;;14.50;6.50;;;;;;;28.49;26.47;100464.40;106282;1266;70122;-82
2024/03/31 05:27:18;;;;;;;14.60;6.10;;;;;;;28.50;26.27;100469.15;106151;1268;70022;-84
2024/03/31 05:29:44;;;;;;;12.30;6.10;;;;;;;28.50;26.23;100471.05;105866;1265;70008;-83
2024/03/31 05:32:09;;;;;;;13.90;6.30;;;;;;;28.51;26.44;100471.40;105778;1266;71538;-84
2024/03/31 05:34:37;;;;;;;14.50;6.30;;;;;;;28.52;26.19;100474.73;105874;1264;69896;-84
2024/03/31 05:37:03;;;;;;;12.60;6.40;;;;;;;28.52;26.19;100473.48;106246;1266;70979;-84
2024/03/31 05:39:28;;;;;;;11.60;6.00;;;;;;;28.53;26.38;100470.45;106229;1268;69928;-84
2024/03/31 05:41:55;;;;;;;14.30;6.80;;;;;;;28.55;26.28;100465.90;105750;1271;69998;-90
2024/03/31 05:44:21;;;;;;;18.70;6.20;;;;;;;28.55;26.17;100463.39;105735;1268;70013;-84
2024/03/31 05:46:47;;;;;;;13.80;6.60;;;;;;;28.57;26.25;100468.83;105861;1267;70011;-84
2024/03/31 05:49:12;;;;;;;10.40;5.90;;;;;;;28.58;26.21;100471.52;105736;1266;70056;-84
2024/03/31 05:51:38;;;;;;;13.20;6.80;;;;;;;28.61;26.25;100477.48;105835;1268;70032;-84
2024/03/31 05:54:03;;;;;;;12.70;6.00;;;;;;;28.63;26.23;100480.50;105729;1265;70000;-84
2024/03/31 05:56:29;;;;;;;12.80;6.10;;;;;;;28.66;26.23;100484.17;105653;1266;70080;-84
2024/03/31 05:58:54;;;;;;;17.90;6.70;;;;;;;28.68;26.24;100482.92;105745;1266;70689;-84
2024/03/31 06:01:19;;;;;;;13.30;5.70;;;;;;;28.70;26.06;100485.70;105839;1265;70025;-84
2024/03/31 06:03:45;;;;;;;14.00;6.00;;;;;;;28.72;26.07;100487.55;105760;1265;71555;-84
2024/03/31 06:06:10;;;;;;;13.20;6.20;;;;;;;28.73;26.11;100486.59;105762;1268;70031;-84
2024/03/31 06:08:36;;;;;;;15.30;6.30;;;;;;;28.75;26.08;100488.57;105702;1271;69997;-84
2024/03/31 06:11:01;;;;;;;14.10;5.80;;;;;;;28.76;26.03;100491.59;105787;1267;70071;-84
2024/03/31 06:13:27;;;;;;;14.40;6.10;;;;;;;28.78;26.09;100492.86;105814;1267;70340;-84
2024/03/31 06:15:53;;;;;;;11.90;5.70;;;;;;;28.78;26.02;100495.90;105753;1266;69980;-84
2024/03/31 06:18:18;;;;;;;11.30;5.60;;;;;;;28.80;26.05;100498.77;105773;1268;70057;-84
2024/03/31 06:20:45;;;;;;;10.70;5.70;;;;;;;28.81;26.12;100499.41;105705;1271;70014;-90
2024/03/31 06:23:11;;;;;;;17.80;6.20;;;;;;;28.81;26.08;100499.71;105561;1273;69973;-84
2024/03/31 06:25:37;;;;;;;10.90;5.90;;;;;;;28.82;26.03;100506.89;105738;1268;70126;-84
2024/03/31 06:28:03;;;;;;;16.80;6.10;;;;;;;28.82;26.08;100511.90;105791;1268;70024;-84
2024/03/31 06:30:28;;;;;;;15.50;5.90;;;;;;;28.82;26.02;100516.20;105764;1265;69969;-84
2024/03/31 06:32:53;;;;;;;11.30;6.00;;;;;;;28.83;26.17;100522.80;105712;1269;70323;-84
2024/03/31 06:35:19;;;;;;;16.70;6.00;;;;;;;28.84;26.11;100527.16;105786;1268;70087;-84
2024/03/31 06:37:44;;;;;;;11.80;6.10;;;;;;;28.85;26.02;100527.26;105820;1266;69901;-84
2024/03/31 06:40:10;;;;;;;14.00;5.70;;;;;;;28.85;25.92;100523.98;105866;1265;70008;-84
2024/03/31 06:42:35;;;;;;;10.20;5.70;;;;;;;28.87;26.05;100525.16;105873;1268;70630;-82
2024/03/31 06:45:01;;;;;;;12.30;5.80;;;;;;;28.87;26.20;100527.79;105940;1270;69998;-84
2024/03/31 06:47:26;;;;;;;9.70;5.30;;;;;;;28.88;26.05;100520.98;105737;1266;70615;-84
2024/03/31 06:49:52;;;;;;;13.80;6.20;;;;;;;28.89;26.01;100524.06;105795;1266;71097;-84
2024/03/31 06:52:17;;;;;;;10.90;5.70;;;;;;;28.89;26.10;100522.57;105693;1267;70003;-84
2024/03/31 06:54:43;;;;;;;10.60;5.10;;;;;;;28.90;25.97;100523.91;105700;1268;70061;-83
2024/03/31 06:57:08;;;;;;;11.60;5.70;;;;;;;28.91;26.15;100521.28;105812;1266;70004;-84
2024/03/31 06:59:34;;;;;;;12.60;5.40;;;;;;;28.92;25.86;100523.57;105802;1268;70002;-90
2024/03/31 07:02:00;;;;;;;15.10;5.90;;;;;;;28.92;26.03;100526.68;105654;1271;74233;-84
2024/03/31 07:04:25;;;;;;;13.30;5.90;;;;;;;28.93;26.04;100527.94;105738;1268;70117;-84
2024/03/31 07:06:51;;;;;;;11.00;5.70;;;;;;;28.94;25.99;100527.70;105746;1266;70414;-83
2024/03/31 07:09:17;;;;;;;12.20;5.80;;;;;;;28.95;25.94;100528.51;106089;1266;70455;-83
2024/03/31 07:11:43;;;;;;;13.20;5.60;;;;;;;28.95;26.21;100533.38;106161;1266;70857;-83
2024/03/31 07:14:09;;;;;;;12.20;5.90;;;;;;;28.96;26.09;100534.70;106022;1266;69944;-83
2024/03/31 07:16:34;;;;;;;13.50;5.90;;;;;;;28.97;26.15;100538.52;105784;1269;70036;-83
2024/03/31 07:18:59;;;;;;;12.50;5.70;;;;;;;28.98;26.08;100539.56;105650;1266;284055;-83
2024/03/31 07:21:25;;;;;;;12.80;5.90;;;;;;;28.98;26.15;100541.70;105892;1268;70128;-83
2024/03/31 07:23:50;;;;;;;10.60;5.30;;;;;;;28.98;26.25;100539.19;105948;1268;69963;-84
2024/03/31 07:26:16;;;;;;;11.30;5.20;;;;;;;28.99;26.11;100539.95;105876;1268;70355;-83
2024/03/31 07:28:42;;;;;;;12.60;5.60;;;;;;;29.00;26.02;100540.85;107380;1266;69852;-83
2024/03/31 07:31:07;;;;;;;11.50;5.60;;;;;;;29.01;26.15;100543.10;105980;1268;70008;-84
2024/03/31 07:33:32;;;;;;;12.80;5.80;;;;;;;29.02;26.27;100543.55;107174;1265;69988;-84
2024/03/31 07:35:58;;;;;;;11.50;5.60;;;;;;;29.04;26.11;100539.98;106766;1265;69947;-84
2024/03/31 07:38:25;;;;;;;10.00;5.30;;;;;;;29.05;26.02;100540.71;105813;1268;70073;-90
2024/03/31 07:40:50;;;;;;;11.80;5.50;;;;;;;29.06;26.26;100539.69;105743;1266;70029;-84
2024/03/31 07:43:23;;;;;;;15.10;5.80;;;;;;;29.08;26.04;100541.93;105930;1268;69983;-83
2024/03/31 07:45:49;;;;;;;13.00;6.20;;;;;;;29.09;26.20;100540.88;106003;1268;70171;-84
2024/03/31 07:48:14;;;;;;;11.10;5.60;;;;;;;29.09;26.05;100533.20;105836;1266;71242;-84
2024/03/31 07:50:40;;;;;;;13.10;5.90;;;;;;;29.09;26.04;100526.55;105793;1268;70010;-84
2024/03/31 07:53:06;;;;;;;11.10;5.50;;;;;;;29.10;26.10;100523.63;105852;1268;70019;-84
2024/03/31 07:55:31;;;;;;;13.30;5.60;;;;;;;29.10;26.19;100521.04;105897;1268;69981;-83
2024/03/31 07:57:57;;;;;;;11.50;5.50;;;;;;;29.10;26.31;100519.10;105840;1268;70452;-84
2024/03/31 08:00:23;;;;;;;12.40;5.70;;;;;;;29.11;26.25;100520.89;105915;1268;70135;-83
2024/03/31 08:02:48;;;;;;;11.10;5.50;;;;;;;29.13;26.07;100525.73;105847;1268;70032;-84
2024/03/31 08:05:14;;;;;;;13.10;5.40;;;;;;;29.13;25.91;100529.31;105762;1269;70061;-89
2024/03/31 08:07:40;;;;;;;11.90;5.50;;;;;;;29.15;25.98;100531.48;105742;1267;69991;-84
2024/03/31 08:10:06;;;;;;;13.70;5.70;;;;;;;29.15;26.13;100529.23;105822;1267;69990;-83
2024/03/31 08:12:31;;;;;;;9.50;5.20;;;;;;;29.15;26.12;100529.50;106114;1266;70017;-84
2024/03/31 08:14:57;;;;;;;10.00;5.10;;;;;;;29.16;25.95;100526.13;105847;1270;70013;-84
2024/03/31 08:17:22;;;;;;;10.60;5.20;;;;;;;29.16;26.15;100523.47;105785;1268;70130;-84
2024/03/31 08:19:48;;;;;;;11.30;5.00;;;;;;;29.17;26.06;100524.22;105759;1268;70135;-83
2024/03/31 08:22:13;;;;;;;12.30;5.40;;;;;;;29.17;25.94;100519.82;105828;1268;70453;-83
2024/03/31 08:24:39;;;;;;;12.00;5.50;;;;;;;29.17;26.00;100515.98;105709;1268;70027;-83
2024/03/31 08:27:04;;;;;;;10.00;5.20;;;;;;;29.18;26.14;100512.94;105666;1268;70057;-83
2024/03/31 08:29:30;;;;;;;14.50;5.30;;;;;;;29.18;26.09;100514.65;105910;1268;69960;-84
2024/03/31 08:31:55;;;;;;;10.70;5.40;;;;;;;29.18;25.98;100514.65;105890;1269;70908;-83
2024/03/31 08:34:21;;;;;;;10.20;5.20;;;;;;;29.18;26.08;100513.29;105810;1268;74272;-84
2024/03/31 08:36:46;;;;;;;11.90;5.20;;;;;;;29.19;25.91;100508.08;105785;1268;70014;-84
2024/03/31 08:39:12;;;;;;;9.00;4.70;;;;;;;29.19;26.04;100507.50;105975;1268;70001;-84
2024/03/31 08:41:44;;;;;;;10.80;5.00;;;;;;;29.20;25.78;100504.16;106306;1266;70006;-86
2024/03/31 08:44:11;;;;;;;10.60;5.20;;;;;;;29.20;25.92;100502.35;106216;1268;70025;-90
2024/03/31 08:46:37;;;;;;;10.10;5.00;;;;;;;29.21;25.88;100503.11;105885;1265;75429;-84
2024/03/31 08:49:02;;;;;;;9.30;4.60;;;;;;;29.22;25.99;100507.32;105918;1268;70303;-84
2024/03/31 08:51:28;;;;;;;11.00;4.60;;;;;;;29.22;26.03;100500.25;105933;1268;70019;-83
2024/03/31 08:53:54;;;;;;;10.40;4.40;;;;;;;29.23;26.06;100497.37;105940;1269;69946;-84
2024/03/31 08:56:19;;;;;;;9.70;4.80;;;;;;;29.24;25.92;100499.72;106014;1267;70096;-83
2024/03/31 08:58:45;;;;;;;9.70;5.30;;;;;;;29.25;26.01;100499.19;105903;1264;70276;-83
2024/03/31 09:01:12;;;;;;;11.10;5.00;;;;;;;29.25;25.97;100497.91;106024;1268;70124;-84
2024/03/31 09:03:38;;;;;;;9.90;4.60;;;;;;;29.25;25.73;100493.53;106215;1267;70391;-84
2024/03/31 09:06:03;;;;;;;12.20;4.90;;;;;;;29.26;25.95;100493.59;105999;1270;69936;-84
2024/03/31 09:08:29;;;;;;;8.40;4.60;;;;;;;29.27;25.97;100489.54;106044;1270;70000;-84
2024/03/31 09:10:54;;;;;;;9.50;4.80;;;;;;;29.27;25.99;100486.30;105803;1269;70159;-84
2024/03/31 09:13:20;;;;;;;9.00;4.90;;;;;;;29.28;25.81;100484.59;106095;1276;70050;-84
2024/03/31 09:15:45;;;;;;;9.70;4.60;;;;;;;29.28;25.76;100483.18;106234;1268;69926;-84
2024/03/31 09:18:11;;;;;;;11.80;5.10;;;;;;;29.28;25.61;100478.20;106519;1266;70051;-83
2024/03/31 09:20:36;;;;;;;9.80;4.50;;;;;;;29.28;25.88;100472.70;106581;1269;70010;-83
2024/03/31 09:23:04;;;;;;;7.40;4.70;;;;;;;29.29;25.95;100476.00;106200;1269;70010;-90
2024/03/31 09:25:31;;;;;;;11.50;4.80;;;;;;;29.29;25.93;100477.48;105786;1267;69921;-84
2024/03/31 09:27:56;;;;;;;10.80;4.40;;;;;;;29.30;25.66;100474.14;105719;1271;70116;-84
2024/03/31 09:30:25;;;;;;;9.30;4.30;;;;;;;29.30;25.77;100479.58;105808;1267;69532;-85
2024/03/31 09:32:53;;;;;;;8.70;4.10;;;;;;;29.31;25.91;100477.48;105856;1272;70092;-84
2024/03/31 09:35:19;;;;;;;7.80;4.20;;;;;;;29.31;25.81;100480.50;105807;1265;71165;-84
2024/03/31 09:37:48;;;;;;;9.00;4.60;;;;;;;29.31;25.72;100471.79;105809;1267;69918;-84
2024/03/31 09:40:13;;;;;;;9.90;4.60;;;;;;;29.31;25.65;100471.70;105822;1270;70025;-84
2024/03/31 09:42:39;;;;;;;9.90;4.40;;;;;;;29.31;25.70;100473.42;105811;1271;70017;-84
2024/03/31 09:45:05;;;;;;;8.80;4.40;;;;;;;29.32;25.68;100474.06;105740;1265;70172;-84
2024/03/31 09:47:49;;;;;;;8.10;4.20;;;;;;;29.33;25.92;100468.56;105707;1271;70020;-84
2024/03/31 09:50:17;;;;;;;9.10;4.10;;;;;;;29.33;25.86;100463.32;105746;1271;74203;-83
2024/03/31 09:52:46;;;;;;;10.40;4.70;;;;;;;29.34;25.60;100459.10;105818;1268;69896;-84
2024/03/31 09:55:13;;;;;;;9.80;4.30;;;;;;;29.34;25.83;100458.30;105873;1269;69934;-84
2024/03/31 09:57:43;;;;;;;8.10;4.50;;;;;;;29.35;25.87;100459.90;106009;1268;70029;-84
2024/03/31 10:00:15;;;;;;;9.90;4.60;;;;;;;29.35;25.79;100460.85;105967;1267;69909;-84
2024/03/31 10:02:51;;;;;;;9.50;4.40;;;;;;;29.36;25.79;100460.32;105910;1271;75188;-84
2024/03/31 10:05:40;;;;;;;8.00;4.30;;;;;;;29.37;25.68;100457.81;105986;1270;69960;-84
2024/03/31 10:08:07;;;;;;;6.80;3.60;;;;;;;29.37;25.82;100455.70;105972;1268;70037;-84
2024/03/31 10:10:32;;;;;;;8.30;4.00;;;;;;;29.38;25.86;100458.20;106062;1267;69936;-84
2024/03/31 10:12:58;;;;;;;9.30;4.40;;;;;;;29.39;25.68;100455.89;106122;1271;70019;-84
2024/03/31 10:15:23;;;;;;;8.50;4.20;;;;;;;29.40;25.84;100458.41;105944;1270;70036;-83
2024/03/31 10:17:49;;;;;;;7.80;4.00;;;;;;;29.41;25.50;100454.92;105945;1267;69938;-83
2024/03/31 10:20:16;;;;;;;8.20;4.00;;;;;;;29.41;25.72;100451.54;105991;1265;70038;-84
2024/03/31 10:22:43;;;;;;;7.00;4.00;;;;;;;29.42;25.81;100447.70;105954;1267;69963;-84
2024/03/31 10:25:09;;;;;;;8.30;4.40;;;;;;;29.42;25.81;100450.20;105936;1270;74272;-83
2024/03/31 10:27:35;;;;;;;8.00;4.00;;;;;;;29.43;25.74;100448.95;105766;1270;70025;-84
2024/03/31 10:30:01;;;;;;;9.60;4.10;;;;;;;29.43;25.52;100453.24;105874;1266;69998;-84
2024/03/31 10:32:26;;;;;;;8.40;3.90;;;;;;;29.44;25.69;100454.31;105771;1266;70084;-84
2024/03/31 10:34:53;;;;;;;7.20;3.70;;;;;;;29.45;25.63;100460.09;105850;1266;70368;-89
2024/03/31 10:37:18;;;;;;;8.10;4.40;;;;;;;29.45;25.55;100456.13;105851;1269;69906;-83
2024/03/31 10:39:44;;;;;;;7.00;4.00;;;;;;;29.46;25.76;100456.20;105571;1267;70204;-84
2024/03/31 10:42:10;;;;;;;7.10;3.70;;;;;;;29.45;25.78;100452.06;105870;1268;70082;-84
2024/03/31 10:44:37;;;;;;;7.70;4.20;;;;;;;29.46;25.70;100445.67;105838;1267;69904;-83
2024/03/31 10:47:05;;;;;;;6.20;3.80;;;;;;;29.46;25.56;100444.84;105974;1267;70128;-84
2024/03/31 10:52:24;;;;;;;6.50;4.20;;;;;;;29.46;25.77;100448.71;106146;1264;70604;-84
2024/03/31 10:54:51;;;;;;;8.70;4.10;;;;;;;29.47;25.81;100447.05;106050;1271;69912;-83
2024/03/31 10:57:17;;;;;;;8.60;4.30;;;;;;;29.47;25.51;100448.38;105926;1263;69912;-83
2024/03/31 10:59:43;;;;;;;11.10;4.00;;;;;;;29.48;25.99;100445.33;105896;1264;71040;-83
2024/03/31 11:02:17;;;;;;;7.80;4.00;;;;;;;29.49;25.90;100444.95;106064;1275;69967;-83
2024/03/31 11:05:03;;;;;;;8.60;4.20;;;;;;;29.49;25.52;100445.97;105960;1267;70123;-88
2024/03/31 11:07:29;;;;;;;7.40;3.80;;;;;;;29.49;25.49;100442.81;105785;1263;70116;-83
2024/03/31 11:09:54;;;;;;;8.90;4.00;;;;;;;29.50;25.77;100440.19;106078;1269;69996;-83
2024/03/31 11:12:24;;;;;;;8.20;4.00;;;;;;;29.50;25.72;100441.20;106092;1268;69987;-83